Relevés horaires Bruxelles-National (Belgique)


Relevés horaires à Bruxelles-National - Samedi 06 Avr. 2024
Heure UTC1 Température [°C] Vent [km/h] Hum. [%] Pres.4 [hPa] Visi. [Km] Nébu. [octa] Préc.5 [mm] Cond.
2m. Res. Ros. Dir.2 Vit. Moy. Raf.3
23:00 18.6 18.6 10.8 OSO 7.4 7.4 9.3 60 1009.4(0.3/3h) 50 7/8 -- --
22:00 17.7 17.7 10.8 SSO 5.6 5.6 5.6 64 1008.7(-0.3/3h) 50 7/8 -- --
21:00 17.3 17.3 10.9 S 5.6 7.4 9.3 66 1008.9(0.1/3h) 50 7/8 -- --
20:00 18.6 18.6 10.6 S 5.6 7.4 9.3 60 1009.1(0.0/3h) 50 7/8 -- --
19:00 19.5 19.5 10.3 S 5.6 7.4 9.3 55 1009(-0.1/3h) 50 7/8 -- --
18:00 19.9 19.9 10.2 S 7.4 20.4 31.5 54 1008.7(-0.3/3h) 50 7/8 0/12h
--
17:00 21.1 21.1 10.3 S 9.3 14.8 20.4 50 1009(0.3/3h) 50 7/8 -- --
16:00 22.5 22.5 8.9 SSO 14.8 16.7 25.9 42 1009(0.2/3h) 50 7/8 -- --
15:00 22.6 22.6 9.0 SSO 16.7 20.4 31.5 42 1008.9(0.7/3h) 50 7/8 -- --
14:00 23.6 23.6 7.1 SSO 16.7 18.5 29.6 35 1008.7(0.7/3h) 50 7/8 -- --
13:00 23.5 23.5 7.4 SSO 14.8 14.8 22.2 36 1008.8(0.4/3h) 50 7/8 -- --
12:00 22.1 22.1 8.3 S 13.0 16.7 24.1 41 1008.2(-0.1/3h) 50 7/8 0/6h
--
11:00 21.3 21.3 8.5 S 14.8 14.8 20.4 44 1008(-1.2/3h) 50 7/8 -- --
10:00 19.7 19.7 7.8 S 13.0 16.7 24.1 46 1008.6(-0.6/3h) 50 7/8 -- --
09:00 18.0 17.8 8.2 S 14.8 14.8 22.2 53 1008.4(-1.4/3h) 50 7/8 -- --
08:00 16.7 16.3 8.9 S 13.0 14.8 22.2 60 1009.3(-0.5/3h) 50 7/8 -- --
07:00 15.9 15.4 9.5 S 13.0 13.0 22.2 66 1009.4(-0.8/3h) 50 7/8 -- --
06:00 14.9 14.1 10.1 S 13.0 13.0 18.5 73 1009.9(-0.8/3h) 50 7/8 0/12h
--
05:00 14.8 14.2 10.3 S 11.1 13.0 16.7 74 1009.9(-1.3/3h) 35 7/8 -- --
04:00 14.6 14.2 10.5 S 9.3 9.3 13.0 76 1010.2(-1.7/3h) 35 5/8 -- --
03:00 14.5 14.1 10.9 S 9.3 9.3 13.0 79 1010.8(-1.2/3h) 35 5/8 -- --
02:00 14.6 14.2 11.6 S 9.3 9.3 11.1 82 1011.2(-1.2/3h) 35 5/8 -- --
01:00 14.0 14.0 11.8 S 5.6 7.4 9.3 87 1011.9(-0.5/3h) 35 5/8 -- --
00:00 14.8 14.8 11.8 S 5.6 14.8 20.4 82 1011.9(0.2/3h) 35 7/8 0/6h
0.1/24h
Il est tombé de la pluie (non sous forme d'averses) à la station au cours de l'heure précédente, mais il n'y en a pas au moment de l'observation

1 Coordinated Universal Time. Actuellement il est 00:00 locale et 22:00 UTC.

2 Le vent souffle depuis la direction indiquée vers la direction oposée.

3 Les rafales max. sont disponible 40 min après l'heure du relevé.

4 Pour les stations d'altitude (plus de 600m) le géopotentiel du niveau le plus proche de la pression obligatoire est indiqué.

5 Les stations disposant d'un diffuseur peuvent indiquer "trace". Cela signifie que des précipitations ont touchés le sol mais que la quantité est inférieure à 0.1 mm.

Récapitulatif de la journée
Température [°C] Vent [km/h] Ensoleillement4 [h] Precipitations totale5 [mm] Pression [Hpa]
Min1 Max.2 Moy.3 Max. Min Max.
13.8 23.8 12.8 31.5 0 h 0 min 0 1008.0 1011.9

1 Température minimale relevée entre 18:00 UTC la veille et 18:00 UTC le jour donné.

2 Température maximale relevée entre 06:00 UTC le jour donné et 06:00 UTC le lendemain.

3 Vent moyen de la journée basé sur les relevés horaires.

4 Ensoleillement en heures relevé entre 06:00 UTC la veille et 06:00 UTC le jour donné.

5 Précipitations totales tombées entre 06:00 UTC la jour donné et 06:00 UTC le lendemain.

Graphiques horaires